Time,TemperatureF,DewpointF,PressureIn,WindDirection,WindDirectionDegrees,WindSpeedMPH,WindSpeedGustMPH,Humidity,HourlyPrecipIn,Conditions,Clouds,dailyrainin,SoftwareType,DateUTC
2013-02-15 00:00:00,41.5,31.0,30.05,NW,315,5.0,11.0,66,0.00,,,0.00,VWS V14.01,2013-02-15 05:00:00,
2013-02-15 00:10:00,40.8,31.1,30.05,NNW,338,4.0,10.0,68,0.00,,,0.00,VWS V14.01,2013-02-15 05:10:00,
2013-02-15 00:20:00,40.1,30.4,30.06,North,0,3.0,8.0,68,0.00,,,0.00,VWS V14.01,2013-02-15 05:20:00,
2013-02-15 00:30:00,39.6,30.3,30.06,NNW,338,5.0,11.0,69,0.00,,,0.00,VWS V14.01,2013-02-15 05:30:00,
2013-02-15 00:40:00,39.1,30.5,30.06,NNW,338,3.0,12.0,71,0.00,,,0.00,VWS V14.01,2013-02-15 05:40:00,
2013-02-15 00:50:00,38.8,30.2,30.06,NNW,338,2.0,6.0,71,0.00,,,0.00,VWS V14.01,2013-02-15 05:50:00,
2013-02-15 01:00:00,38.3,30.1,30.06,NNW,338,2.0,7.0,72,0.00,,,0.00,VWS V14.01,2013-02-15 06:00:00,
2013-02-15 01:10:00,38.0,29.8,30.06,NNW,338,2.0,6.0,72,0.00,,,0.00,VWS V14.01,2013-02-15 06:10:00,
2013-02-15 01:20:00,37.9,29.7,30.05,North,0,1.0,4.0,72,0.00,,,0.00,VWS V14.01,2013-02-15 06:20:00,
2013-02-15 01:30:00,37.8,29.9,30.05,North,0,0.0,2.0,73,0.00,,,0.00,VWS V14.01,2013-02-15 06:30:00,
2013-02-15 01:40:00,37.6,29.7,30.05,North,0,0.0,2.0,73,0.00,,,0.00,VWS V14.01,2013-02-15 06:40:00,
2013-02-15 01:50:00,37.6,30.1,30.06,North,0,0.0,0.0,74,0.00,,,0.00,VWS V14.01,2013-02-15 06:50:00,
2013-02-15 02:00:00,37.5,30.3,30.06,North,0,0.0,0.0,75,0.00,,,0.00,VWS V14.01,2013-02-15 07:00:00,
2013-02-15 02:10:00,37.8,30.6,30.06,North,0,0.0,1.0,75,0.00,,,0.00,VWS V14.01,2013-02-15 07:10:00,
2013-02-15 02:20:00,37.8,30.6,30.06,North,0,0.0,0.0,75,0.00,,,0.00,VWS V14.01,2013-02-15 07:20:00,
2013-02-15 02:30:00,37.5,30.6,30.05,North,0,0.0,0.0,76,0.00,,,0.00,VWS V14.01,2013-02-15 07:30:00,
2013-02-15 02:40:00,37.2,31.0,30.05,North,0,0.0,0.0,78,0.00,,,0.00,VWS V14.01,2013-02-15 07:40:00,
2013-02-15 02:50:00,37.2,31.0,30.05,North,0,0.0,0.0,78,0.00,,,0.00,VWS V14.01,2013-02-15 07:50:00,
2013-02-15 03:00:00,37.2,31.0,30.05,North,0,0.0,1.0,78,0.00,,,0.00,VWS V14.01,2013-02-15 08:00:00,
2013-02-15 03:10:00,37.2,31.3,30.05,North,0,0.0,1.0,79,0.00,,,0.00,VWS V14.01,2013-02-15 08:10:00,
2013-02-15 03:20:00,37.0,31.1,30.06,North,0,0.0,0.0,79,0.00,,,0.00,VWS V14.01,2013-02-15 08:20:00,
2013-02-15 03:30:00,36.9,31.0,30.05,North,0,0.0,0.0,79,0.00,,,0.00,VWS V14.01,2013-02-15 08:30:00,
2013-02-15 03:40:00,37.2,31.6,30.05,North,0,0.0,0.0,80,0.00,,,0.00,VWS V14.01,2013-02-15 08:40:00,
2013-02-15 03:50:00,37.2,31.3,30.06,North,0,0.0,0.0,79,0.00,,,0.00,VWS V14.01,2013-02-15 08:50:00,
2013-02-15 04:00:00,37.3,31.1,30.07,North,0,0.0,0.0,78,0.00,,,0.00,VWS V14.01,2013-02-15 09:00:00,
2013-02-15 04:10:00,37.3,30.8,30.07,North,0,0.0,1.0,77,0.00,,,0.00,VWS V14.01,2013-02-15 09:10:00,
2013-02-15 04:20:00,37.3,30.8,30.07,North,0,0.0,0.0,77,0.00,,,0.00,VWS V14.01,2013-02-15 09:20:00,
2013-02-15 04:30:00,37.3,30.8,30.07,North,0,0.0,0.0,77,0.00,,,0.00,VWS V14.01,2013-02-15 09:30:00,
2013-02-15 04:40:00,37.5,31.0,30.07,North,0,0.0,0.0,77,0.00,,,0.00,VWS V14.01,2013-02-15 09:40:00,
2013-02-15 04:50:00,37.5,30.6,30.07,North,0,0.0,0.0,76,0.00,,,0.00,VWS V14.01,2013-02-15 09:50:00,
2013-02-15 05:00:00,37.3,30.8,30.07,North,0,0.0,1.0,77,0.00,,,0.00,VWS V14.01,2013-02-15 10:00:00,
2013-02-15 05:10:00,37.2,30.4,30.07,North,0,0.0,1.0,76,0.00,,,0.00,VWS V14.01,2013-02-15 10:10:00,
2013-02-15 05:20:00,37.3,30.8,30.07,North,0,0.0,0.0,77,0.00,,,0.00,VWS V14.01,2013-02-15 10:20:00,
2013-02-15 05:30:00,37.2,30.7,30.08,North,0,0.0,0.0,77,0.00,,,0.00,VWS V14.01,2013-02-15 10:30:00,
2013-02-15 05:40:00,37.3,30.8,30.08,North,0,0.0,1.0,77,0.00,,,0.00,VWS V14.01,2013-02-15 10:40:00,
2013-02-15 05:50:00,37.2,30.7,30.08,North,0,0.0,3.0,77,0.00,,,0.00,VWS V14.01,2013-02-15 10:50:00,
2013-02-15 06:00:00,37.2,30.7,30.10,West,270,1.0,5.0,77,0.00,,,0.00,VWS V14.01,2013-02-15 11:00:00,
2013-02-15 06:10:00,37.3,30.8,30.10,WSW,248,1.0,4.0,77,0.00,,,0.00,VWS V14.01,2013-02-15 11:10:00,
2013-02-15 06:20:00,37.3,30.8,30.10,WSW,248,0.0,0.0,77,0.00,,,0.00,VWS V14.01,2013-02-15 11:20:00,
2013-02-15 06:30:00,37.2,30.7,30.10,WSW,248,0.0,0.0,77,0.00,,,0.00,VWS V14.01,2013-02-15 11:30:00,
2013-02-15 06:40:00,37.2,30.7,30.10,WSW,248,0.0,0.0,77,0.00,,,0.00,VWS V14.01,2013-02-15 11:40:00,
2013-02-15 06:50:00,37.2,31.0,30.10,WSW,248,0.0,0.0,78,0.00,,,0.00,VWS V14.01,2013-02-15 11:50:00,
2013-02-15 07:00:00,37.3,30.8,30.10,WSW,248,0.0,0.0,77,0.00,,,0.00,VWS V14.01,2013-02-15 12:00:00,
2013-02-15 07:10:00,37.5,31.0,30.10,WSW,248,0.0,0.0,77,0.00,,,0.00,VWS V14.01,2013-02-15 12:10:00,
2013-02-15 07:20:00,37.6,30.4,30.10,West,270,0.0,1.0,75,0.00,,,0.00,VWS V14.01,2013-02-15 12:20:00,
2013-02-15 07:30:00,37.8,30.3,30.11,West,270,0.0,0.0,74,0.00,,,0.00,VWS V14.01,2013-02-15 12:30:00,
2013-02-15 07:40:00,38.0,29.8,30.11,West,270,0.0,0.0,72,0.00,,,0.00,VWS V14.01,2013-02-15 12:40:00,
2013-02-15 07:50:00,38.3,29.4,30.11,WSW,248,0.0,2.0,70,0.00,,,0.00,VWS V14.01,2013-02-15 12:50:00,
2013-02-15 08:00:00,38.5,29.9,30.10,SSW,202,0.0,3.0,71,0.00,,,0.00,VWS V14.01,2013-02-15 13:00:00,
2013-02-15 08:10:00,38.3,29.4,30.10,SSW,202,1.0,3.0,70,0.00,,,0.00,VWS V14.01,2013-02-15 13:10:00,
2013-02-15 08:20:00,38.5,29.9,30.11,SSW,202,1.0,3.0,71,0.00,,,0.00,VWS V14.01,2013-02-15 13:20:00,
2013-02-15 08:30:00,38.8,30.6,30.11,SSW,202,1.0,3.0,72,0.00,,,0.00,VWS V14.01,2013-02-15 13:30:00,
2013-02-15 08:40:00,38.9,30.7,30.11,SSW,202,0.0,2.0,72,0.00,,,0.00,VWS V14.01,2013-02-15 13:40:00,
2013-02-15 08:50:00,39.2,30.6,30.11,SSW,202,0.0,3.0,71,0.00,,,0.00,VWS V14.01,2013-02-15 13:50:00,
2013-02-15 09:00:00,39.3,30.7,30.11,WSW,248,1.0,3.0,71,0.00,,,0.00,VWS V14.01,2013-02-15 14:00:00,
2013-02-15 09:10:00,39.8,30.1,30.11,WSW,248,0.0,3.0,68,0.00,,,0.00,VWS V14.01,2013-02-15 14:10:00,
2013-02-15 09:20:00,40.6,30.9,30.11,WSW,248,1.0,4.0,68,0.00,,,0.00,VWS V14.01,2013-02-15 14:20:00,
2013-02-15 09:30:00,41.1,31.0,30.11,SW,225,1.0,4.0,67,0.00,,,0.00,VWS V14.01,2013-02-15 14:30:00,
2013-02-15 09:40:00,41.1,28.7,30.11,WSW,248,2.0,7.0,61,0.00,,,0.00,VWS V14.01,2013-02-15 14:40:00,
2013-02-15 09:50:00,41.1,29.1,30.11,West,270,3.0,7.0,62,0.00,,,0.00,VWS V14.01,2013-02-15 14:50:00,
2013-02-15 10:00:00,41.3,28.5,30.11,WNW,292,3.0,6.0,60,0.00,,,0.00,VWS V14.01,2013-02-15 15:00:00,
2013-02-15 10:10:00,41.5,27.4,30.11,WNW,292,3.0,7.0,57,0.00,,,0.00,VWS V14.01,2013-02-15 15:10:00,
2013-02-15 10:20:00,41.1,27.0,30.11,WNW,292,5.0,10.0,57,0.00,,,0.00,VWS V14.01,2013-02-15 15:20:00,
2013-02-15 10:30:00,40.3,27.9,30.12,WNW,292,7.0,12.0,61,0.00,,,0.00,VWS V14.01,2013-02-15 15:30:00,
2013-02-15 10:40:00,40.2,28.2,30.12,WNW,292,6.0,11.0,62,0.00,,,0.00,VWS V14.01,2013-02-15 15:40:00,
2013-02-15 10:50:00,39.8,28.2,30.12,WNW,292,6.0,14.0,63,0.00,,,0.00,VWS V14.01,2013-02-15 15:50:00,
2013-02-15 11:00:00,39.2,28.8,30.13,WNW,292,5.0,10.0,66,0.00,,,0.00,VWS V14.01,2013-02-15 16:00:00,
2013-02-15 11:10:00,39.3,27.8,30.13,West,270,4.0,7.0,63,0.00,,,0.00,VWS V14.01,2013-02-15 16:10:00,
2013-02-15 11:20:00,39.6,27.3,30.13,West,270,5.0,9.0,61,0.00,,,0.00,VWS V14.01,2013-02-15 16:20:00,
2013-02-15 11:30:00,39.6,27.3,30.12,WNW,292,5.0,9.0,61,0.00,,,0.00,VWS V14.01,2013-02-15 16:30:00,
2013-02-15 11:40:00,39.5,27.2,30.12,WNW,292,6.0,12.0,61,0.00,,,0.00,VWS V14.01,2013-02-15 16:40:00,
2013-02-15 11:50:00,38.5,27.8,30.12,WNW,292,6.0,17.0,65,0.00,,,0.00,VWS V14.01,2013-02-15 16:50:00,
2013-02-15 12:00:00,37.6,29.1,30.13,WNW,292,7.0,13.0,71,0.00,,,0.00,VWS V14.01,2013-02-15 17:00:00,
2013-02-15 12:10:00,37.6,29.4,30.13,West,270,4.0,11.0,72,0.00,,,0.00,VWS V14.01,2013-02-15 17:10:00,
2013-02-15 12:20:00,38.0,29.8,30.12,West,270,4.0,9.0,72,0.00,,,0.00,VWS V14.01,2013-02-15 17:20:00,
2013-02-15 12:30:00,38.2,29.3,30.11,West,270,4.0,9.0,70,0.00,,,0.00,VWS V14.01,2013-02-15 17:30:00,
2013-02-15 12:40:00,38.6,29.0,30.11,West,270,4.0,10.0,68,0.00,,,0.00,VWS V14.01,2013-02-15 17:40:00,
2013-02-15 12:50:00,38.8,28.8,30.11,West,270,5.0,9.0,67,0.00,,,0.00,VWS V14.01,2013-02-15 17:50:00,
2013-02-15 13:00:00,38.8,28.8,30.11,West,270,4.0,8.0,67,0.00,,,0.00,VWS V14.01,2013-02-15 18:00:00,
2013-02-15 13:10:00,38.3,28.7,30.11,West,270,5.0,11.0,68,0.00,,,0.00,VWS V14.01,2013-02-15 18:10:00,
2013-02-15 13:20:00,38.0,29.1,30.11,West,270,5.0,11.0,70,0.00,,,0.00,VWS V14.01,2013-02-15 18:20:00,
2013-02-15 13:30:00,37.9,30.0,30.11,WSW,248,4.0,9.0,73,0.00,,,0.00,VWS V14.01,2013-02-15 18:30:00,
2013-02-15 13:40:00,37.8,30.3,30.11,West,270,4.0,10.0,74,0.00,,,0.00,VWS V14.01,2013-02-15 18:40:00,
2013-02-15 13:50:00,37.3,30.8,30.12,West,270,5.0,11.0,77,0.00,,,0.00,VWS V14.01,2013-02-15 18:50:00,
2013-02-15 14:00:00,37.6,32.0,30.11,West,270,3.0,7.0,80,0.00,,,0.00,VWS V14.01,2013-02-15 19:00:00,
2013-02-15 14:10:00,38.0,31.1,30.11,West,270,4.0,8.0,76,0.00,,,0.00,VWS V14.01,2013-02-15 19:10:00,
2013-02-15 14:20:00,38.2,31.0,30.10,West,270,4.0,7.0,75,0.00,,,0.00,VWS V14.01,2013-02-15 19:20:00,
2013-02-15 14:30:00,38.5,31.0,30.10,West,270,3.0,7.0,74,0.00,,,0.00,VWS V14.01,2013-02-15 19:30:00,
2013-02-15 14:40:00,38.8,30.2,30.10,WSW,248,3.0,6.0,71,0.00,,,0.00,VWS V14.01,2013-02-15 19:40:00,
2013-02-15 14:50:00,39.2,29.5,30.10,West,270,4.0,13.0,68,0.00,,,0.00,VWS V14.01,2013-02-15 19:50:00,
2013-02-15 15:00:00,39.5,28.4,30.10,West,270,6.0,14.0,64,0.00,,,0.00,VWS V14.01,2013-02-15 20:00:00,
2013-02-15 15:10:00,40.2,28.2,30.10,West,270,6.0,12.0,62,0.00,,,0.00,VWS V14.01,2013-02-15 20:10:00,
2013-02-15 15:20:00,38.3,28.7,30.11,WNW,292,6.0,14.0,68,0.00,,,0.00,VWS V14.01,2013-02-15 20:20:00,
2013-02-15 15:30:00,37.2,29.0,30.12,WNW,292,5.0,11.0,72,0.00,,,0.00,VWS V14.01,2013-02-15 20:30:00,
2013-02-15 15:40:00,37.3,29.1,30.12,West,270,3.0,7.0,72,0.00,,,0.00,VWS V14.01,2013-02-15 20:40:00,
2013-02-15 15:50:00,37.6,29.1,30.12,West,270,3.0,7.0,71,0.00,,,0.00,VWS V14.01,2013-02-15 20:50:00,
2013-02-15 16:00:00,38.3,28.0,30.12,West,270,3.0,8.0,66,0.00,,,0.00,VWS V14.01,2013-02-15 21:00:00,
2013-02-15 16:10:00,38.5,28.1,30.12,West,270,4.0,8.0,66,0.00,,,0.00,VWS V14.01,2013-02-15 21:10:00,
2013-02-15 16:20:00,38.5,27.8,30.12,West,270,4.0,9.0,65,0.00,,,0.00,VWS V14.01,2013-02-15 21:20:00,
2013-02-15 16:30:00,38.6,27.5,30.12,WNW,292,4.0,10.0,64,0.00,,,0.00,VWS V14.01,2013-02-15 21:30:00,
2013-02-15 16:40:00,38.6,27.5,30.12,West,270,3.0,7.0,64,0.00,,,0.00,VWS V14.01,2013-02-15 21:40:00,
2013-02-15 16:50:00,38.6,27.1,30.12,WNW,292,3.0,6.0,63,0.00,,,0.00,VWS V14.01,2013-02-15 21:50:00,
2013-02-15 17:00:00,38.5,25.8,30.12,West,270,3.0,8.0,60,0.00,,,0.00,VWS V14.01,2013-02-15 22:00:00,
2013-02-15 17:10:00,38.2,23.9,30.12,West,270,4.0,9.0,56,0.00,,,0.00,VWS V14.01,2013-02-15 22:10:00,
2013-02-15 17:20:00,37.8,23.1,30.13,WNW,292,4.0,9.0,55,0.00,,,0.00,VWS V14.01,2013-02-15 22:20:00,
2013-02-15 17:30:00,37.5,22.4,30.14,WNW,292,3.0,6.0,54,0.00,,,0.00,VWS V14.01,2013-02-15 22:30:00,
2013-02-15 17:40:00,37.2,22.5,30.14,WNW,292,2.0,5.0,55,0.00,,,0.00,VWS V14.01,2013-02-15 22:40:00,
2013-02-15 17:50:00,36.9,22.3,30.14,WNW,292,2.0,6.0,55,0.00,,,0.00,VWS V14.01,2013-02-15 22:50:00,
2013-02-15 18:00:00,36.8,22.2,30.15,WNW,292,4.0,11.0,55,0.00,,,0.00,VWS V14.01,2013-02-15 23:00:00,
2013-02-15 18:10:00,36.8,22.6,30.15,WNW,292,4.0,8.0,56,0.00,,,0.00,VWS V14.01,2013-02-15 23:10:00,
2013-02-15 18:20:00,36.5,21.9,30.16,West,270,4.0,9.0,55,0.00,,,0.00,VWS V14.01,2013-02-15 23:20:00,
2013-02-15 18:30:00,36.2,20.7,30.16,West,270,6.0,13.0,53,0.00,,,0.00,VWS V14.01,2013-02-15 23:30:00,
2013-02-15 18:40:00,35.6,20.6,30.16,West,270,5.0,11.0,54,0.00,,,0.00,VWS V14.01,2013-02-15 23:40:00,
2013-02-15 18:50:00,35.0,20.5,30.17,WNW,292,4.0,9.0,55,0.00,,,0.00,VWS V14.01,2013-02-15 23:50:00,
2013-02-15 19:00:00,34.6,20.5,30.17,West,270,2.0,7.0,56,0.00,,,0.00,VWS V14.01,2013-02-16 00:00:00,
2013-02-15 19:10:00,34.0,20.0,30.17,West,270,2.0,5.0,56,0.00,,,0.00,VWS V14.01,2013-02-16 00:10:00,
2013-02-15 19:20:00,33.7,19.7,30.17,West,270,1.0,5.0,56,0.00,,,0.00,VWS V14.01,2013-02-16 00:20:00,
2013-02-15 19:30:00,33.2,19.2,30.17,West,270,1.0,6.0,56,0.00,,,0.00,VWS V14.01,2013-02-16 00:30:00,
2013-02-15 19:40:00,32.8,18.4,30.17,West,270,3.0,5.0,55,0.00,,,0.00,VWS V14.01,2013-02-16 00:40:00,
2013-02-15 19:50:00,32.5,18.1,30.17,West,270,2.0,6.0,55,0.00,,,0.00,VWS V14.01,2013-02-16 00:50:00,
2013-02-15 20:00:00,32.4,18.9,30.17,WNW,292,4.0,10.0,57,0.00,,,0.00,VWS V14.01,2013-02-16 01:00:00,
2013-02-15 20:10:00,31.9,19.6,30.17,WNW,292,2.0,8.0,60,0.00,,,0.00,VWS V14.01,2013-02-16 01:10:00,
2013-02-15 20:25:00,31.5,20.7,30.18,WNW,302,0.0,8.0,64,0.00,,,0.00,VWS V14.01,2013-02-16 01:25:00,
2013-02-15 20:30:00,31.2,20.8,30.19,WNW,297,1.0,8.0,65,0.00,,,0.00,VWS V14.01,2013-02-16 01:30:00,
2013-02-15 20:35:00,31.0,21.0,30.19,WNW,298,0.0,8.0,66,0.00,,,0.00,VWS V14.01,2013-02-16 01:35:00,
2013-02-15 20:40:00,30.9,21.2,30.19,NW,306,1.0,8.0,67,0.00,,,0.00,VWS V14.01,2013-02-16 01:40:00,
2013-02-15 20:45:00,30.7,21.4,30.19,NW,305,0.0,8.0,68,0.00,,,0.00,VWS V14.01,2013-02-16 01:45:00,
2013-02-15 20:50:00,30.7,21.8,30.19,WNW,298,1.0,8.0,69,0.00,,,0.00,VWS V14.01,2013-02-16 01:50:00,
2013-02-15 20:55:00,30.6,21.6,30.19,WNW,298,0.0,8.0,69,0.00,,,0.00,VWS V14.01,2013-02-16 01:55:00,
2013-02-15 21:00:00,30.4,21.8,30.20,WNW,298,0.0,8.0,70,0.00,,,0.00,VWS V14.01,2013-02-16 02:00:00,
2013-02-15 21:05:00,30.3,21.7,30.20,WNW,300,3.0,8.0,70,0.00,,,0.00,VWS V14.01,2013-02-16 02:05:00,
2013-02-15 21:10:00,30.1,21.9,30.20,WNW,295,1.0,8.0,71,0.00,,,0.00,VWS V14.01,2013-02-16 02:10:00,
2013-02-15 21:15:00,30.0,21.8,30.20,West,276,0.0,8.0,71,0.00,,,0.00,VWS V14.01,2013-02-16 02:15:00,
2013-02-15 21:20:00,30.0,22.1,30.20,NW,304,2.0,8.0,72,0.00,,,0.00,VWS V14.01,2013-02-16 02:20:00,
2013-02-15 21:25:00,29.8,22.2,30.20,WNW,289,4.0,8.0,73,0.00,,,0.00,VWS V14.01,2013-02-16 02:25:00,
2013-02-15 21:30:00,29.7,22.1,30.19,NW,323,3.0,8.0,73,0.00,,,0.00,VWS V14.01,2013-02-16 02:30:00,
2013-02-15 21:35:00,29.5,21.9,30.19,WNW,302,0.0,8.0,73,0.00,,,0.00,VWS V14.01,2013-02-16 02:35:00,
2013-02-15 21:40:00,29.5,21.9,30.19,NW,317,2.0,8.0,73,0.00,,,0.00,VWS V14.01,2013-02-16 02:40:00,
2013-02-15 21:45:00,29.3,21.7,30.19,North,350,1.0,8.0,73,0.00,,,0.00,VWS V14.01,2013-02-16 02:45:00,
2013-02-15 21:50:00,29.3,21.7,30.19,NNW,328,4.0,8.0,73,0.00,,,0.00,VWS V14.01,2013-02-16 02:50:00,
2013-02-15 21:55:00,29.1,21.2,30.19,NW,323,3.0,8.0,72,0.00,,,0.00,VWS V14.01,2013-02-16 02:55:00,
2013-02-15 22:00:00,29.1,20.9,30.19,NW,314,0.0,8.0,71,0.00,,,0.00,VWS V14.01,2013-02-16 03:00:00,
2013-02-15 22:01:00,29.1,20.9,30.19,NW,322,4.0,8.0,71,0.00,,,0.00,VWS V14.01,2013-02-16 03:01:00,
2013-02-15 22:06:00,29.1,20.5,30.19,WNW,287,2.0,8.0,70,0.00,,,0.00,VWS V14.01,2013-02-16 03:06:00,
2013-02-15 22:10:00,29.0,20.5,30.19,NW,308,0.0,8.0,70,0.00,,,0.00,VWS V14.01,2013-02-16 03:10:00,
2013-02-15 22:11:00,29.0,20.5,30.19,NNW,338,2.0,8.0,70,0.00,,,0.00,VWS V14.01,2013-02-16 03:11:00,
2013-02-15 22:16:00,28.8,19.9,30.19,NW,323,3.0,8.0,69,0.00,,,0.00,VWS V14.01,2013-02-16 03:16:00,
2013-02-15 22:20:00,28.8,20.3,30.19,West,272,2.0,8.0,70,0.00,,,0.00,VWS V14.01,2013-02-16 03:20:00,
2013-02-15 22:21:00,28.7,20.2,30.19,NW,317,2.0,8.0,70,0.00,,,0.00,VWS V14.01,2013-02-16 03:21:00,
2013-02-15 22:26:00,28.7,20.2,30.19,NW,307,0.0,8.0,70,0.00,,,0.00,VWS V14.01,2013-02-16 03:26:00,
2013-02-15 22:30:00,28.5,20.0,30.19,NW,309,3.0,8.0,70,0.00,,,0.00,VWS V14.01,2013-02-16 03:30:00,
2013-02-15 22:31:00,28.5,20.0,30.19,WNW,291,2.0,8.0,70,0.00,,,0.00,VWS V14.01,2013-02-16 03:31:00,
2013-02-15 22:36:00,28.4,19.9,30.19,NW,313,3.0,8.0,70,0.00,,,0.00,VWS V14.01,2013-02-16 03:36:00,
2013-02-15 22:40:00,28.4,19.9,30.19,NW,313,0.0,8.0,70,0.00,,,0.00,VWS V14.01,2013-02-16 03:40:00,
2013-02-15 22:41:00,28.2,20.0,30.19,NW,313,0.0,8.0,71,0.00,,,0.00,VWS V14.01,2013-02-16 03:41:00,
2013-02-15 22:46:00,28.2,20.0,30.19,NW,304,0.0,8.0,71,0.00,,,0.00,VWS V14.01,2013-02-16 03:46:00,
2013-02-15 22:50:00,28.1,19.9,30.19,NW,309,0.0,8.0,71,0.00,,,0.00,VWS V14.01,2013-02-16 03:50:00,
2013-02-15 22:51:00,28.1,19.9,30.19,NW,309,0.0,8.0,71,0.00,,,0.00,VWS V14.01,2013-02-16 03:51:00,
2013-02-15 22:56:00,27.9,20.1,30.19,NW,310,0.0,8.0,72,0.00,,,0.00,VWS V14.01,2013-02-16 03:56:00,
2013-02-15 23:00:00,27.8,20.0,30.18,NW,310,0.0,8.0,72,0.00,,,0.00,VWS V14.01,2013-02-16 04:00:00,
2013-02-15 23:01:00,27.8,20.0,30.18,NW,310,0.0,8.0,72,0.00,,,0.00,VWS V14.01,2013-02-16 04:01:00,
2013-02-15 23:06:00,27.8,20.3,30.18,NW,311,0.0,8.0,73,0.00,,,0.00,VWS V14.01,2013-02-16 04:06:00,
2013-02-15 23:10:00,27.8,20.3,30.18,NW,311,0.0,8.0,73,0.00,,,0.00,VWS V14.01,2013-02-16 04:10:00,
2013-02-15 23:11:00,27.6,20.4,30.18,NW,311,0.0,8.0,74,0.00,,,0.00,VWS V14.01,2013-02-16 04:11:00,
2013-02-15 23:16:00,27.6,20.4,30.18,NW,309,0.0,8.0,74,0.00,,,0.00,VWS V14.01,2013-02-16 04:16:00,
2013-02-15 23:20:00,27.5,20.3,30.18,NW,309,0.0,8.0,74,0.00,,,0.00,VWS V14.01,2013-02-16 04:20:00,
2013-02-15 23:21:00,27.5,20.3,30.18,NW,309,0.0,8.0,74,0.00,,,0.00,VWS V14.01,2013-02-16 04:21:00,
2013-02-15 23:26:00,27.5,20.6,30.18,NW,309,0.0,8.0,75,0.00,,,0.00,VWS V14.01,2013-02-16 04:26:00,
2013-02-15 23:30:00,27.5,20.6,30.18,NW,309,0.0,8.0,75,0.00,,,0.00,VWS V14.01,2013-02-16 04:30:00,
2013-02-15 23:31:00,27.5,20.6,30.18,NW,309,0.0,8.0,75,0.00,,,0.00,VWS V14.01,2013-02-16 04:31:00,
2013-02-15 23:36:00,27.3,20.4,30.18,NW,313,2.0,8.0,75,0.00,,,0.00,VWS V14.01,2013-02-16 04:36:00,
2013-02-15 23:40:00,27.3,20.8,30.18,NW,313,0.0,8.0,76,0.00,,,0.00,VWS V14.01,2013-02-16 04:40:00,
2013-02-15 23:41:00,27.3,20.8,30.18,NW,313,0.0,8.0,76,0.00,,,0.00,VWS V14.01,2013-02-16 04:41:00,
2013-02-15 23:47:00,27.3,20.8,30.18,NW,306,1.0,8.0,76,0.00,,,0.00,VWS V14.01,2013-02-16 04:47:00,
2013-02-15 23:50:00,27.2,20.6,30.18,NW,306,0.0,8.0,76,0.00,,,0.00,VWS V14.01,2013-02-16 04:50:00,
2013-02-15 23:52:00,27.2,20.6,30.18,NW,306,0.0,8.0,76,0.00,,,0.00,VWS V14.01,2013-02-16 04:52:00,
2013-02-15 23:57:00,27.0,20.8,30.18,NW,306,0.0,8.0,77,0.00,,,0.00,VWS V14.01,2013-02-16 04:57:00,